createdAt,value
2023-07-01T00:00:18.862Z,97977.94
2023-07-01T00:05:50.847Z,97979.94
2023-07-01T00:11:13.338Z,97976.13
2023-07-01T00:16:35.635Z,97969.88
2023-07-01T00:21:58.094Z,97977.59
2023-07-01T00:27:20.564Z,97961.59
2023-07-01T00:32:45.881Z,97961.75
2023-07-01T00:38:08.911Z,97956.47
2023-07-01T00:43:30.805Z,97959.69
2023-07-01T00:48:54.041Z,97950.91
2023-07-01T00:54:16.864Z,97936.25
2023-07-01T00:59:40.468Z,97932.22
2023-07-01T01:05:16.202Z,97933.63
2023-07-01T01:10:43.123Z,97935.72
2023-07-01T01:16:05.764Z,97946.78
2023-07-01T01:21:33.188Z,97939.13
2023-07-01T01:26:59.508Z,97939.56
2023-07-01T01:32:24.577Z,97933.56
2023-07-01T01:38:25.018Z,97944.34
2023-07-01T01:43:54.079Z,97932.84
2023-07-01T01:49:16.868Z,97931.69
2023-07-01T01:54:39.964Z,97930.81
2023-07-01T02:00:02.118Z,97923.84
2023-07-01T02:05:36.620Z,97934.72
2023-07-01T02:10:59.491Z,97926.69
2023-07-01T02:16:21.455Z,97931.66
2023-07-01T02:21:43.805Z,97914.72
2023-07-01T02:27:06.596Z,97937.50
2023-07-01T02:32:29.166Z,97936.78
2023-07-01T02:37:51.542Z,97923.84
2023-07-01T02:43:14.518Z,97943.50
2023-07-01T02:48:36.966Z,97916.00
2023-07-01T02:53:59.287Z,97939.41
2023-07-01T02:59:21.459Z,97941.19
2023-07-01T03:04:44.091Z,97956.00
2023-07-01T03:10:08.276Z,97950.00
2023-07-01T03:15:33.049Z,97951.88
2023-07-01T03:20:59.552Z,97942.06
2023-07-01T03:26:22.171Z,97961.56
2023-07-01T03:31:44.607Z,97964.00
2023-07-01T03:37:07.849Z,97960.22
2023-07-01T03:42:32.138Z,97970.09
2023-07-01T03:47:54.265Z,97967.31
2023-07-01T03:53:15.751Z,97969.81
2023-07-01T03:58:37.714Z,97959.88
2023-07-01T04:03:59.594Z,97957.88
2023-07-01T04:09:22.480Z,97957.94
2023-07-01T04:14:44.351Z,97957.31
2023-07-01T04:20:07.985Z,97961.16
2023-07-01T04:25:30.222Z,97956.72
2023-07-01T04:30:52.531Z,97950.88
2023-07-01T04:36:14.543Z,97959.56
2023-07-01T04:41:36.993Z,97964.31
2023-07-01T04:46:59.451Z,97948.00
2023-07-01T04:52:26.497Z,97952.13
2023-07-01T04:57:49.060Z,97960.81
2023-07-01T05:03:11.470Z,97956.63
2023-07-01T05:08:33.950Z,97966.59
2023-07-01T05:13:55.860Z,97970.78
2023-07-01T05:19:17.887Z,97960.47
2023-07-01T05:24:50.304Z,97963.38
2023-07-01T05:30:15.300Z,97976.91
2023-07-01T05:35:37.078Z,97982.00
2023-07-01T05:40:59.322Z,97978.16
2023-07-01T05:46:21.149Z,97977.56
2023-07-01T05:51:43.111Z,97983.16
2023-07-01T05:57:06.051Z,97983.09
2023-07-01T06:02:27.782Z,97975.81
2023-07-01T06:07:51.097Z,97979.97
2023-07-01T06:13:12.997Z,97980.66
2023-07-01T06:18:35.052Z,97984.38
2023-07-01T06:23:57.587Z,97982.22
2023-07-01T06:29:19.821Z,97969.41
2023-07-01T06:34:42.390Z,97965.91
2023-07-01T06:40:05.016Z,97974.22
2023-07-01T06:45:27.341Z,97977.81
2023-07-01T06:50:49.741Z,97957.59
2023-07-01T06:56:13.018Z,97955.41
2023-07-01T07:01:35.686Z,97977.97
2023-07-01T07:06:58.066Z,97985.16
2023-07-01T07:12:20.067Z,97993.16
2023-07-01T07:17:42.620Z,97994.38
2023-07-01T07:23:07.941Z,97986.47
2023-07-01T07:28:29.973Z,97994.13
2023-07-01T07:33:51.943Z,98004.06
2023-07-01T07:39:16.019Z,98012.13
2023-07-01T07:44:38.041Z,98006.72
2023-07-01T07:50:01.964Z,98000.72
2023-07-01T07:55:27.783Z,97991.25
2023-07-01T08:00:50.060Z,97984.66
2023-07-01T08:06:12.155Z,97982.34
2023-07-01T08:11:34.418Z,97978.16
2023-07-01T08:16:56.899Z,97977.81
2023-07-01T08:22:19.846Z,97965.66
2023-07-01T08:27:41.970Z,97967.13
2023-07-01T08:33:04.438Z,97982.09
2023-07-01T08:38:37.448Z,97970.47
2023-07-01T08:44:02.231Z,97977.91
2023-07-01T08:49:25.849Z,97973.13
2023-07-01T08:54:48.650Z,97981.28
2023-07-01T09:00:13.986Z,97960.63
2023-07-01T09:05:36.308Z,97986.69
2023-07-01T09:10:58.454Z,97982.44
2023-07-01T09:16:37.769Z,97993.53
2023-07-01T09:22:12.601Z,97995.25
2023-07-01T09:27:50.976Z,97992.16
2023-07-01T09:33:17.225Z,97998.38
2023-07-01T09:38:55.453Z,97995.19
2023-07-01T09:44:21.172Z,97992.06
2023-07-01T09:49:46.845Z,97996.69
2023-07-01T09:55:09.885Z,97997.00
2023-07-01T10:00:35.210Z,98004.13
2023-07-01T10:05:59.292Z,97995.16
2023-07-01T10:11:25.057Z,97989.78
2023-07-01T10:16:50.294Z,97991.34
2023-07-01T10:22:28.416Z,97984.88
2023-07-01T10:27:50.242Z,97968.72
2023-07-01T10:33:37.753Z,97972.16
2023-07-01T10:39:33.208Z,97988.25
2023-07-01T10:44:55.637Z,98000.31
2023-07-01T10:50:20.067Z,97993.59
2023-07-01T10:55:49.303Z,98011.88
2023-07-01T11:01:44.051Z,98009.88
2023-07-01T11:07:06.940Z,98017.69
2023-07-01T11:12:32.199Z,98024.72
2023-07-01T11:17:56.514Z,98011.97
2023-07-01T11:23:19.052Z,98025.56
2023-07-01T11:28:41.303Z,98024.34
2023-07-01T11:34:03.903Z,98011.59
2023-07-01T11:39:27.076Z,98008.22
2023-07-01T11:44:49.444Z,97995.63
2023-07-01T11:50:11.817Z,97993.78
2023-07-01T11:55:37.032Z,98000.34
2023-07-01T12:00:59.979Z,97995.28
2023-07-01T12:06:24.113Z,97985.00
2023-07-01T12:11:50.841Z,98002.66
2023-07-01T12:17:33.701Z,98011.19
2023-07-01T12:22:56.081Z,98014.75
2023-07-01T12:28:21.669Z,98023.34
2023-07-01T12:33:44.017Z,98020.59
2023-07-01T12:39:08.991Z,98034.94
2023-07-01T12:44:31.474Z,98038.38
2023-07-01T12:49:53.591Z,98042.88
2023-07-01T12:55:15.489Z,98020.50
2023-07-01T13:00:37.602Z,98026.22
2023-07-01T13:06:01.068Z,98037.50
2023-07-01T13:11:24.614Z,98030.94
2023-07-01T13:16:46.721Z,98036.09
2023-07-01T13:22:09.083Z,98051.91
2023-07-01T13:27:32.000Z,98060.38
2023-07-01T13:32:54.156Z,98054.16
2023-07-01T13:38:18.974Z,98061.50
2023-07-01T13:43:41.434Z,98064.53
2023-07-01T13:49:03.588Z,98068.75
2023-07-01T13:54:28.647Z,98070.72
2023-07-01T13:59:50.522Z,98075.72
2023-07-01T14:05:12.785Z,98096.88
2023-07-01T14:10:41.650Z,98099.59
2023-07-01T14:16:04.348Z,98100.38
2023-07-01T14:21:32.192Z,98108.16
2023-07-01T14:26:56.372Z,98101.22
2023-07-01T14:32:20.891Z,98093.59
2023-07-01T14:37:49.343Z,98096.03
2023-07-01T14:43:13.174Z,98105.44
2023-07-01T14:48:35.524Z,98108.56
2023-07-01T14:53:59.049Z,98097.72
2023-07-01T14:59:21.135Z,98101.19
2023-07-01T15:04:43.578Z,98087.66
2023-07-01T15:10:09.332Z,98085.41
2023-07-01T15:15:31.781Z,98092.88
2023-07-01T15:20:54.761Z,98091.13
2023-07-01T15:26:16.837Z,98081.34
2023-07-01T15:31:40.049Z,98072.41
2023-07-01T15:37:02.449Z,98078.94
2023-07-01T15:42:24.621Z,98076.94
2023-07-01T15:47:47.188Z,98083.13
2023-07-01T15:53:09.397Z,98088.13
2023-07-01T15:58:32.446Z,98085.03
2023-07-01T16:03:56.069Z,98091.28
2023-07-01T16:09:45.598Z,98104.16
2023-07-01T16:15:21.285Z,98098.31
2023-07-01T16:20:47.660Z,98099.88
2023-07-01T16:26:10.526Z,98106.94
2023-07-01T16:31:33.082Z,98100.72
2023-07-01T16:36:55.886Z,98108.16
2023-07-01T16:42:20.691Z,98111.34
2023-07-01T16:47:43.021Z,98106.66
2023-07-01T16:53:05.033Z,98112.47
2023-07-01T16:58:43.647Z,98102.63
2023-07-01T17:04:05.832Z,98109.56
2023-07-01T17:09:47.961Z,98089.63
2023-07-01T17:15:26.577Z,98090.31
2023-07-01T17:20:48.670Z,98089.38
2023-07-01T17:26:10.899Z,98058.88
2023-07-01T17:31:32.918Z,98091.41
2023-07-01T17:36:57.532Z,98095.81
2023-07-01T17:42:19.921Z,98100.31
2023-07-01T17:47:43.389Z,98100.91
2023-07-01T17:53:06.095Z,98108.25
2023-07-01T17:58:29.219Z,98114.22
2023-07-01T18:03:51.573Z,98116.44
2023-07-01T18:09:18.904Z,98112.31
2023-07-01T18:14:41.063Z,98116.16
2023-07-01T18:20:06.508Z,98112.97
2023-07-01T18:25:31.926Z,98111.13
2023-07-01T18:30:54.340Z,98115.22
2023-07-01T18:36:16.570Z,98125.25
2023-07-01T18:41:38.969Z,98127.28
2023-07-01T18:47:01.217Z,98118.22
2023-07-01T18:52:24.165Z,98124.16
2023-07-01T18:57:45.916Z,98125.59
2023-07-01T19:03:07.914Z,98123.31
2023-07-01T19:08:30.585Z,98126.16
2023-07-01T19:13:52.522Z,98120.63
2023-07-01T19:19:21.779Z,98123.13
2023-07-01T19:24:43.684Z,98129.22
2023-07-01T19:30:16.947Z,98139.47
2023-07-01T19:35:39.422Z,98127.91
2023-07-01T19:41:04.376Z,98133.88
2023-07-01T19:46:26.471Z,98131.94
2023-07-01T19:51:52.203Z,98138.09
2023-07-01T19:57:14.300Z,98139.38
2023-07-01T20:02:39.018Z,98139.31
2023-07-01T20:08:00.983Z,98133.84
2023-07-01T20:13:23.116Z,98139.44
2023-07-01T20:18:45.437Z,98138.66
2023-07-01T20:24:08.014Z,98132.63
2023-07-01T20:29:30.439Z,98130.84
2023-07-01T20:34:54.166Z,98143.06
2023-07-01T20:40:16.143Z,98148.16
2023-07-01T20:45:38.386Z,98142.72
2023-07-01T20:51:03.975Z,98145.06
2023-07-01T20:56:26.481Z,98139.03
2023-07-01T21:01:48.955Z,98136.00
2023-07-01T21:07:13.841Z,98134.53
2023-07-01T21:12:35.952Z,98130.81
2023-07-01T21:17:58.697Z,98129.91
2023-07-01T21:23:20.526Z,98136.59
2023-07-01T21:28:43.195Z,98119.44
2023-07-01T21:34:07.132Z,98126.97
2023-07-01T21:39:30.858Z,98128.91
2023-07-01T21:44:53.051Z,98130.31
2023-07-01T21:50:47.217Z,98131.28
2023-07-01T21:56:20.710Z,98123.97
2023-07-01T22:01:43.950Z,98121.59
2023-07-01T22:07:06.347Z,98112.97
2023-07-01T22:12:28.918Z,98110.81
2023-07-01T22:17:51.309Z,98112.66
2023-07-01T22:23:14.357Z,98108.88
2023-07-01T22:28:36.418Z,98117.44
2023-07-01T22:33:58.867Z,98100.88
2023-07-01T22:39:21.232Z,98109.41
2023-07-01T22:44:43.271Z,98108.81
2023-07-01T22:50:18.041Z,98115.78
2023-07-01T22:55:39.947Z,98117.44
2023-07-01T23:01:04.499Z,98114.13
2023-07-01T23:06:26.341Z,98116.56
2023-07-01T23:11:48.421Z,98107.38
2023-07-01T23:17:12.861Z,98103.59
2023-07-01T23:22:37.569Z,98107.38
2023-07-01T23:28:11.629Z,98110.50
2023-07-01T23:33:33.901Z,98109.09
2023-07-01T23:38:55.784Z,98102.56
2023-07-01T23:44:20.119Z,98091.59
2023-07-01T23:49:42.867Z,98112.63
2023-07-01T23:55:06.216Z,98102.25
